createdAt,value
2019-05-18T00:02:09.121Z,20.81
2019-05-18T00:04:35.619Z,20.79
2019-05-18T00:07:02.123Z,20.74
2019-05-18T00:09:28.466Z,20.77
2019-05-18T00:11:54.876Z,20.77
2019-05-18T00:14:21.449Z,20.76
2019-05-18T00:16:47.773Z,20.75
2019-05-18T00:19:14.106Z,20.76
2019-05-18T00:21:40.479Z,20.76
2019-05-18T00:24:08.171Z,20.77
2019-05-18T00:26:33.316Z,20.73
2019-05-18T00:28:59.696Z,20.70
2019-05-18T00:31:26.198Z,20.69
2019-05-18T00:33:52.564Z,20.70
2019-05-18T00:36:18.890Z,20.70
2019-05-18T00:38:51.325Z,20.69
2019-05-18T00:41:17.680Z,20.70
2019-05-18T00:43:44.071Z,20.70
2019-05-18T00:46:10.499Z,20.69
2019-05-18T00:48:36.850Z,20.69
2019-05-18T00:51:03.247Z,20.68
2019-05-18T00:53:29.610Z,20.65
2019-05-18T00:55:55.947Z,20.64
2019-05-18T00:58:22.346Z,20.65
2019-05-18T01:00:48.697Z,20.65
2019-05-18T01:03:15.053Z,20.63
2019-05-18T01:05:41.426Z,20.62
2019-05-18T01:10:34.178Z,20.59
2019-05-18T01:13:00.634Z,20.59
2019-05-18T01:15:26.957Z,20.58
2019-05-18T01:17:57.563Z,20.57
2019-05-18T01:20:19.635Z,20.55
2019-05-18T01:22:46.160Z,20.54
2019-05-18T01:25:12.526Z,20.49
2019-05-18T01:27:39.017Z,20.54
2019-05-18T01:30:05.368Z,20.48
2019-05-18T01:32:31.873Z,20.49
2019-05-18T01:34:58.204Z,20.50
2019-05-18T01:37:24.759Z,20.46
2019-05-18T01:39:51.079Z,20.46
2019-05-18T01:44:43.809Z,20.44
2019-05-18T01:47:10.148Z,20.42
2019-05-18T01:49:36.506Z,20.43
2019-05-18T01:52:02.930Z,20.42
2019-05-18T01:54:29.240Z,20.39
2019-05-18T01:56:57.869Z,20.36
2019-05-18T01:59:24.181Z,20.41
2019-05-18T02:01:50.512Z,20.37
2019-05-18T02:04:16.867Z,20.36
2019-05-18T02:06:43.231Z,20.33
2019-05-18T02:09:09.624Z,20.32
2019-05-18T02:11:35.936Z,20.32
2019-05-18T02:14:02.343Z,20.32
2019-05-18T02:18:55.096Z,20.29
2019-05-18T02:21:21.380Z,20.32
2019-05-18T02:23:47.728Z,20.27
2019-05-18T02:26:14.049Z,20.26
2019-05-18T02:28:40.551Z,20.25
2019-05-18T02:31:06.871Z,20.24
2019-05-18T02:33:33.244Z,20.24
2019-05-18T02:35:59.688Z,20.19
2019-05-18T02:38:26.038Z,20.19
2019-05-18T02:40:52.418Z,20.18
2019-05-18T02:43:18.795Z,20.19
2019-05-18T02:45:45.125Z,20.17
2019-05-18T02:48:11.507Z,20.18
2019-05-18T02:53:04.243Z,20.15
2019-05-18T02:55:30.699Z,20.14
2019-05-18T02:57:57.043Z,20.13
2019-05-18T03:00:23.416Z,20.11
2019-05-18T03:02:49.789Z,20.11
2019-05-18T03:05:16.185Z,20.12
2019-05-18T03:07:42.667Z,20.05
2019-05-18T03:10:09.234Z,20.01
2019-05-18T03:12:35.605Z,20.03
2019-05-18T03:15:01.971Z,20.03
2019-05-18T03:17:28.288Z,20.05
2019-05-18T03:19:54.887Z,20.02
2019-05-18T03:22:21.242Z,19.99
2019-05-18T03:24:47.600Z,19.98
2019-05-18T03:27:13.955Z,19.95
2019-05-18T03:29:40.392Z,19.97
2019-05-18T03:32:06.756Z,19.92
2019-05-18T03:34:33.192Z,19.95
2019-05-18T03:36:59.454Z,19.92
2019-05-18T03:39:25.802Z,19.91
2019-05-18T03:41:52.128Z,19.89
2019-05-18T03:44:18.522Z,19.90
2019-05-18T03:46:44.869Z,19.91
2019-05-18T03:49:25.494Z,19.88
2019-05-18T03:51:37.747Z,19.90
2019-05-18T03:54:04.133Z,19.88
2019-05-18T03:56:30.629Z,19.88
2019-05-18T03:58:57.063Z,19.88
2019-05-18T04:01:23.471Z,19.87
2019-05-18T04:03:49.814Z,19.86
2019-05-18T04:06:16.203Z,19.86
2019-05-18T04:08:42.598Z,19.86
2019-05-18T04:11:09.075Z,19.85
2019-05-18T04:13:35.452Z,19.87
2019-05-18T04:16:01.798Z,19.86
2019-05-18T04:18:28.144Z,19.89
2019-05-18T04:20:54.524Z,19.84
2019-05-18T04:23:20.916Z,19.85
2019-05-18T04:25:47.357Z,19.86
2019-05-18T04:28:13.713Z,19.88
2019-05-18T04:30:40.114Z,19.88
2019-05-18T04:33:06.469Z,19.89
2019-05-18T04:35:32.792Z,19.88
2019-05-18T04:37:59.126Z,19.89
2019-05-18T04:40:25.555Z,19.86
2019-05-18T04:42:52.013Z,19.88
2019-05-18T04:45:18.366Z,19.89
2019-05-18T04:47:48.530Z,19.88
2019-05-18T04:50:11.089Z,19.87
2019-05-18T04:52:37.412Z,19.88
2019-05-18T04:57:30.140Z,19.87
2019-05-18T04:59:56.507Z,19.90
2019-05-18T05:02:22.920Z,19.88
2019-05-18T05:04:52.620Z,19.92
2019-05-18T05:07:15.692Z,19.92
2019-05-18T05:09:42.247Z,19.92
2019-05-18T05:12:08.763Z,19.96
2019-05-18T05:14:35.124Z,19.92
2019-05-18T05:17:01.514Z,19.95
2019-05-18T05:19:27.889Z,20.00
2019-05-18T05:21:54.209Z,19.98
2019-05-18T05:24:20.588Z,20.03
2019-05-18T05:26:46.975Z,20.05
2019-05-18T05:31:39.814Z,20.10
2019-05-18T05:34:06.338Z,20.14
2019-05-18T05:36:32.686Z,20.13
2019-05-18T05:38:59.039Z,20.12
2019-05-18T05:41:25.369Z,20.12
2019-05-18T05:43:51.884Z,20.12
2019-05-18T05:46:18.278Z,20.12
2019-05-18T05:48:44.745Z,20.14
2019-05-18T05:51:11.180Z,20.16
2019-05-18T05:53:37.616Z,20.18
2019-05-18T05:56:03.966Z,20.18
2019-05-18T05:58:30.507Z,20.22
2019-05-18T06:00:56.917Z,20.26
2019-05-18T06:05:49.659Z,20.34
2019-05-18T06:08:15.992Z,20.39
2019-05-18T06:10:42.369Z,20.35
2019-05-18T06:13:08.758Z,20.42
2019-05-18T06:15:35.161Z,20.44
2019-05-18T06:18:01.461Z,20.48
2019-05-18T06:20:27.987Z,20.53
2019-05-18T06:22:54.323Z,20.54
2019-05-18T06:25:20.712Z,20.58
2019-05-18T06:27:47.089Z,20.63
2019-05-18T06:30:13.596Z,20.65
2019-05-18T06:32:39.937Z,20.71
2019-05-18T06:35:06.286Z,20.74
2019-05-18T06:37:32.608Z,20.76
2019-05-18T06:39:59.128Z,20.79
2019-05-18T06:42:25.497Z,20.86
2019-05-18T06:44:51.991Z,20.88
2019-05-18T06:47:18.317Z,20.92
2019-05-18T06:49:44.897Z,20.98
2019-05-18T06:52:11.231Z,20.95
2019-05-18T06:54:37.825Z,21.04
2019-05-18T06:57:04.281Z,21.05
2019-05-18T06:59:30.680Z,21.09
2019-05-18T07:01:56.938Z,21.10
2019-05-18T07:04:23.452Z,21.14
2019-05-18T07:06:49.795Z,21.17
2019-05-18T07:09:16.157Z,21.20
2019-05-18T07:11:42.514Z,21.22
2019-05-18T07:14:09.164Z,21.27
2019-05-18T07:16:35.575Z,21.25
2019-05-18T07:19:01.841Z,21.32
2019-05-18T07:23:54.570Z,21.39
2019-05-18T07:26:21.141Z,21.43
2019-05-18T07:28:47.471Z,21.45
2019-05-18T07:31:13.830Z,21.51
2019-05-18T07:33:40.227Z,21.55
2019-05-18T07:36:06.552Z,21.60
2019-05-18T07:38:32.942Z,21.66
2019-05-18T07:40:59.422Z,21.69
2019-05-18T07:43:25.752Z,21.73
2019-05-18T07:45:52.280Z,21.76
2019-05-18T07:48:18.706Z,21.82
2019-05-18T07:50:45.071Z,21.88
2019-05-18T07:53:11.469Z,21.93
2019-05-18T07:55:37.871Z,21.95
2019-05-18T07:58:04.356Z,22.02
2019-05-18T08:00:30.894Z,22.04
2019-05-18T08:02:57.223Z,22.10
2019-05-18T08:05:23.574Z,22.12
2019-05-18T08:07:49.910Z,22.19
2019-05-18T08:10:16.406Z,22.21
2019-05-18T08:12:42.821Z,22.22
2019-05-18T08:15:09.279Z,22.26
2019-05-18T08:17:35.682Z,22.24
2019-05-18T08:20:02.108Z,22.28
2019-05-18T08:22:28.564Z,22.29
2019-05-18T08:24:54.931Z,22.31
2019-05-18T08:27:21.249Z,22.35
2019-05-18T08:29:47.675Z,22.35
2019-05-18T08:32:14.011Z,22.35
2019-05-18T08:34:40.539Z,22.36
2019-05-18T08:37:06.946Z,22.39
2019-05-18T08:39:33.606Z,22.40
2019-05-18T08:42:00.225Z,22.41
2019-05-18T08:44:26.678Z,22.46
2019-05-18T08:46:53.029Z,22.47
2019-05-18T08:49:19.392Z,22.48
2019-05-18T08:51:45.732Z,22.50
2019-05-18T08:54:12.185Z,22.49
2019-05-18T08:56:38.538Z,22.55
2019-05-18T08:59:04.975Z,22.55
2019-05-18T09:01:31.258Z,22.52
2019-05-18T09:03:59.085Z,22.61
2019-05-18T09:06:24.259Z,22.57
2019-05-18T09:08:50.587Z,22.64
2019-05-18T09:11:16.947Z,22.64
2019-05-18T09:13:43.276Z,22.68
2019-05-18T09:16:09.787Z,22.69
2019-05-18T09:18:36.130Z,22.73
2019-05-18T09:21:02.555Z,22.72
2019-05-18T09:23:29.000Z,22.78
2019-05-18T09:28:21.740Z,22.82
2019-05-18T09:30:48.089Z,22.83
2019-05-18T09:33:14.613Z,22.83
2019-05-18T09:35:40.987Z,22.88
2019-05-18T09:38:07.384Z,22.94
2019-05-18T09:40:33.725Z,22.95
2019-05-18T09:43:00.090Z,22.95
2019-05-18T09:45:26.490Z,22.88
2019-05-18T09:47:52.809Z,22.91
2019-05-18T09:50:19.153Z,22.91
2019-05-18T09:52:46.293Z,22.87
2019-05-18T09:55:11.976Z,22.84
2019-05-18T09:57:38.327Z,22.82
2019-05-18T10:00:04.852Z,22.84
2019-05-18T10:02:31.386Z,22.79
2019-05-18T10:04:57.726Z,22.77
2019-05-18T10:07:24.046Z,22.75
2019-05-18T10:09:50.430Z,22.72
2019-05-18T10:12:16.914Z,22.76
2019-05-18T10:14:43.241Z,22.70
2019-05-18T10:17:09.771Z,22.69
2019-05-18T10:19:36.102Z,22.67
2019-05-18T10:22:02.469Z,22.66
2019-05-18T10:24:28.820Z,22.64
2019-05-18T10:26:55.147Z,22.63
2019-05-18T10:29:21.527Z,22.64
2019-05-18T10:31:47.867Z,22.62
2019-05-18T10:34:14.430Z,22.62
2019-05-18T10:36:40.918Z,22.60
2019-05-18T10:39:07.248Z,22.55
2019-05-18T10:41:33.605Z,22.58
2019-05-18T10:44:00.026Z,22.55
2019-05-18T10:46:26.403Z,22.54
2019-05-18T10:48:52.742Z,22.56
2019-05-18T10:51:19.115Z,22.56
2019-05-18T10:53:45.452Z,22.54
2019-05-18T10:56:11.814Z,22.53
2019-05-18T10:58:38.142Z,22.55
2019-05-18T11:01:04.681Z,22.52
2019-05-18T11:03:30.990Z,22.52
2019-05-18T11:05:57.371Z,22.49
2019-05-18T11:08:23.722Z,22.48
2019-05-18T11:10:50.173Z,22.46
2019-05-18T11:13:17.355Z,22.47
2019-05-18T11:15:42.922Z,22.47
2019-05-18T11:18:09.281Z,22.43
2019-05-18T11:20:35.668Z,22.46
2019-05-18T11:23:02.010Z,22.47
2019-05-18T11:25:28.496Z,22.44
2019-05-18T11:27:54.823Z,22.44
2019-05-18T11:30:21.388Z,22.42
2019-05-18T11:32:47.728Z,22.40
2019-05-18T11:35:14.199Z,22.43
2019-05-18T11:37:40.729Z,22.43
2019-05-18T11:40:07.111Z,22.41
2019-05-18T11:42:33.420Z,22.43
2019-05-18T11:44:59.776Z,22.43
2019-05-18T11:47:26.153Z,22.40
2019-05-18T11:49:52.646Z,22.39
2019-05-18T11:54:45.453Z,22.40
2019-05-18T11:57:11.867Z,22.38
2019-05-18T11:59:38.168Z,22.40
2019-05-18T12:02:04.621Z,22.39
2019-05-18T12:04:30.887Z,22.37
2019-05-18T12:06:57.527Z,22.38
2019-05-18T12:09:23.869Z,22.39
2019-05-18T12:11:50.196Z,22.37
2019-05-18T12:14:16.582Z,22.37
2019-05-18T12:16:43.038Z,22.35
2019-05-18T12:19:09.416Z,22.34
2019-05-18T12:21:35.746Z,22.36
2019-05-18T12:24:14.969Z,22.38
2019-05-18T12:28:54.829Z,22.35
2019-05-18T12:31:21.322Z,22.31
2019-05-18T12:33:47.791Z,22.34
2019-05-18T12:36:15.746Z,22.31
2019-05-18T12:38:40.460Z,22.31
2019-05-18T12:41:06.850Z,22.33
2019-05-18T12:43:33.264Z,22.31
2019-05-18T12:45:59.597Z,22.33
2019-05-18T12:48:25.977Z,22.31
2019-05-18T12:50:52.292Z,22.27
2019-05-18T12:53:18.664Z,22.31
2019-05-18T12:55:45.152Z,22.26
2019-05-18T12:58:11.661Z,22.28
2019-05-18T13:00:38.050Z,22.31
2019-05-18T13:03:04.403Z,22.25
2019-05-18T13:05:30.879Z,22.26
2019-05-18T13:07:57.415Z,22.27
2019-05-18T13:12:50.357Z,22.26
2019-05-18T13:15:16.794Z,22.28
2019-05-18T13:17:43.381Z,22.26
2019-05-18T13:20:09.709Z,22.36
2019-05-18T13:22:36.199Z,22.35
2019-05-18T13:25:02.543Z,22.34
2019-05-18T13:27:38.707Z,22.38
2019-05-18T13:29:55.411Z,22.42
2019-05-18T13:32:21.950Z,22.37
2019-05-18T13:34:48.288Z,22.39
2019-05-18T13:37:14.746Z,22.42
2019-05-18T13:39:41.076Z,22.42
2019-05-18T13:42:07.464Z,22.44
2019-05-18T13:47:00.175Z,22.46
2019-05-18T13:49:26.541Z,22.46
2019-05-18T13:51:53.204Z,22.48
2019-05-18T13:54:19.738Z,22.44
2019-05-18T13:56:46.125Z,22.48
2019-05-18T13:59:12.593Z,22.50
2019-05-18T14:01:38.930Z,22.47
2019-05-18T14:04:05.274Z,22.50
2019-05-18T14:06:31.646Z,22.48
2019-05-18T14:08:58.179Z,22.49
2019-05-18T14:11:24.513Z,22.50
2019-05-18T14:13:50.983Z,22.48
2019-05-18T14:16:17.314Z,22.47
2019-05-18T14:18:43.705Z,22.50
2019-05-18T14:21:10.058Z,22.51
2019-05-18T14:23:36.476Z,22.53
2019-05-18T14:26:02.819Z,22.50
2019-05-18T14:28:29.212Z,22.51
2019-05-18T14:30:55.542Z,22.50
2019-05-18T14:33:21.940Z,22.53
2019-05-18T14:35:48.395Z,22.52
2019-05-18T14:38:14.768Z,22.53
2019-05-18T14:40:41.107Z,22.52
2019-05-18T14:43:07.435Z,22.55
2019-05-18T14:45:36.130Z,22.52
2019-05-18T14:48:02.479Z,22.52
2019-05-18T14:50:28.908Z,22.51
2019-05-18T14:52:55.194Z,22.52
2019-05-18T14:55:32.733Z,22.53
2019-05-18T14:57:47.932Z,22.54
2019-05-18T15:00:14.450Z,22.54
2019-05-18T15:02:40.792Z,22.49
2019-05-18T15:05:07.143Z,22.54
2019-05-18T15:07:33.515Z,22.53
2019-05-18T15:09:59.863Z,22.52
2019-05-18T15:12:26.397Z,22.60
2019-05-18T15:17:19.159Z,22.54
2019-05-18T15:19:45.680Z,22.54
2019-05-18T15:22:12.023Z,22.60
2019-05-18T15:24:38.399Z,22.57
2019-05-18T15:27:04.785Z,22.57
2019-05-18T15:29:31.170Z,22.57
2019-05-18T15:31:57.501Z,22.55
2019-05-18T15:34:23.881Z,22.60
2019-05-18T15:36:50.220Z,22.62
2019-05-18T15:39:16.584Z,22.62
2019-05-18T15:41:43.181Z,22.63
2019-05-18T15:44:09.592Z,22.62
2019-05-18T15:46:35.917Z,22.61
2019-05-18T15:49:02.377Z,22.65
2019-05-18T15:51:28.709Z,22.60
2019-05-18T15:53:55.121Z,22.64
2019-05-18T15:56:21.559Z,22.62
2019-05-18T15:58:47.871Z,22.61
2019-05-18T16:01:14.218Z,22.63
2019-05-18T16:03:40.582Z,22.61
2019-05-18T16:06:06.966Z,22.66
2019-05-18T16:08:33.294Z,22.68
2019-05-18T16:10:59.756Z,22.67
2019-05-18T16:13:26.141Z,22.62
2019-05-18T16:15:52.617Z,22.63
2019-05-18T16:18:18.991Z,22.67
2019-05-18T16:20:45.505Z,22.66
2019-05-18T16:25:38.232Z,22.64
2019-05-18T16:28:04.606Z,22.65
2019-05-18T16:30:30.933Z,22.67
2019-05-18T16:32:57.345Z,22.65
2019-05-18T16:35:23.748Z,22.67
2019-05-18T16:37:50.210Z,22.64
2019-05-18T16:40:16.567Z,22.65
2019-05-18T16:42:46.374Z,22.68
2019-05-18T16:47:35.806Z,22.66
2019-05-18T16:50:02.153Z,22.67
2019-05-18T16:52:28.581Z,22.67
2019-05-18T16:54:55.029Z,22.64
2019-05-18T16:57:21.468Z,22.68
2019-05-18T16:59:47.804Z,22.68
2019-05-18T17:02:30.316Z,22.68
2019-05-18T17:04:40.681Z,22.68
2019-05-18T17:07:07.045Z,22.71
2019-05-18T17:09:33.540Z,22.69
2019-05-18T17:11:59.863Z,22.67
2019-05-18T17:14:26.386Z,22.69
2019-05-18T17:16:52.735Z,22.70
2019-05-18T17:21:45.418Z,22.72
2019-05-18T17:24:11.829Z,22.68
2019-05-18T17:26:51.785Z,22.73
2019-05-18T17:29:04.533Z,22.72
2019-05-18T17:31:31.013Z,22.72
2019-05-18T17:33:57.345Z,22.75
2019-05-18T17:36:23.725Z,22.73
2019-05-18T17:38:50.212Z,22.73
2019-05-18T17:41:16.623Z,22.73
2019-05-18T17:43:42.928Z,22.75
2019-05-18T17:46:09.411Z,22.72
2019-05-18T17:48:35.793Z,22.73
2019-05-18T17:51:02.117Z,22.75
2019-05-18T17:55:54.943Z,22.73
2019-05-18T17:58:21.263Z,22.75
2019-05-18T18:00:47.626Z,22.71
2019-05-18T18:03:14.005Z,22.75
2019-05-18T18:05:40.458Z,22.71
2019-05-18T18:08:06.812Z,22.69
2019-05-18T18:10:33.273Z,22.76
2019-05-18T18:12:59.621Z,22.76
2019-05-18T18:15:25.998Z,22.76
2019-05-18T18:17:52.362Z,22.72
2019-05-18T18:20:18.736Z,22.76
2019-05-18T18:22:45.051Z,22.78
2019-05-18T18:25:11.384Z,22.78
2019-05-18T18:27:37.823Z,22.75
2019-05-18T18:30:04.185Z,22.79
2019-05-18T18:32:30.515Z,22.79
2019-05-18T18:34:56.861Z,22.77
2019-05-18T18:37:23.368Z,22.78
2019-05-18T18:39:49.702Z,22.77
2019-05-18T18:42:16.105Z,22.77
2019-05-18T18:44:42.401Z,22.77
2019-05-18T18:47:08.728Z,22.79
2019-05-18T18:49:35.098Z,22.79
2019-05-18T18:52:01.431Z,22.81
2019-05-18T18:54:27.802Z,22.80
2019-05-18T18:56:54.129Z,22.79
2019-05-18T18:59:20.470Z,22.79
2019-05-18T19:01:46.804Z,22.81
2019-05-18T19:04:13.235Z,22.76
2019-05-18T19:06:39.666Z,22.79
2019-05-18T19:09:05.979Z,22.76
2019-05-18T19:11:32.373Z,22.78
2019-05-18T19:13:58.702Z,22.76
2019-05-18T19:16:25.075Z,22.75
2019-05-18T19:18:51.444Z,22.76
2019-05-18T19:21:17.757Z,22.71
2019-05-18T19:26:10.461Z,22.73
2019-05-18T19:28:36.902Z,22.72
2019-05-18T19:31:03.434Z,22.71
2019-05-18T19:33:29.798Z,22.75
2019-05-18T19:35:56.217Z,22.75
2019-05-18T19:38:22.684Z,22.77
2019-05-18T19:40:49.077Z,22.71
2019-05-18T19:43:15.410Z,22.70
2019-05-18T19:45:41.778Z,22.71
2019-05-18T19:48:08.259Z,22.67
2019-05-18T19:50:34.600Z,22.67
2019-05-18T19:53:01.153Z,22.64
2019-05-18T19:55:27.470Z,22.61
2019-05-18T19:57:53.959Z,22.61
2019-05-18T20:00:20.299Z,22.58
2019-05-18T20:02:46.748Z,22.56
2019-05-18T20:05:13.061Z,22.56
2019-05-18T20:07:39.509Z,22.54
2019-05-18T20:10:05.915Z,22.50
2019-05-18T20:12:32.270Z,22.50
2019-05-18T20:14:58.602Z,22.48
2019-05-18T20:17:24.968Z,22.46
2019-05-18T20:19:51.311Z,22.46
2019-05-18T20:22:17.731Z,22.42
2019-05-18T20:24:44.136Z,22.36
2019-05-18T20:27:10.499Z,22.38
2019-05-18T20:29:36.845Z,22.39
2019-05-18T20:32:03.175Z,22.39
2019-05-18T20:34:29.666Z,22.36
2019-05-18T20:36:55.994Z,22.34
2019-05-18T20:39:22.351Z,22.29
2019-05-18T20:44:15.212Z,22.27
2019-05-18T20:46:41.594Z,22.24
2019-05-18T20:49:08.163Z,22.23
2019-05-18T20:51:34.517Z,22.25
2019-05-18T20:54:00.936Z,22.22
2019-05-18T20:56:27.475Z,22.23
2019-05-18T20:58:53.799Z,22.22
2019-05-18T21:01:20.337Z,22.20
2019-05-18T21:03:46.668Z,22.17
2019-05-18T21:06:13.215Z,22.21
2019-05-18T21:08:39.570Z,22.17
2019-05-18T21:11:06.057Z,22.13
2019-05-18T21:13:32.417Z,22.13
2019-05-18T21:18:25.191Z,22.09
2019-05-18T21:20:51.700Z,22.07
2019-05-18T21:23:18.051Z,22.06
2019-05-18T21:25:44.401Z,22.09
2019-05-18T21:28:10.724Z,22.06
2019-05-18T21:30:37.240Z,22.04
2019-05-18T21:33:03.753Z,22.02
2019-05-18T21:35:30.091Z,22.04
2019-05-18T21:37:56.495Z,22.02
2019-05-18T21:40:26.074Z,21.98
2019-05-18T21:42:49.289Z,21.98
2019-05-18T21:45:17.030Z,22.01
2019-05-18T21:47:42.256Z,22.03
2019-05-18T21:52:34.952Z,21.97
2019-05-18T21:55:01.598Z,21.94
2019-05-18T21:57:27.903Z,21.98
2019-05-18T21:59:54.423Z,21.94
2019-05-18T22:02:20.798Z,21.95
2019-05-18T22:04:49.143Z,21.92
2019-05-18T22:07:13.595Z,21.91
2019-05-18T22:09:39.940Z,21.90
2019-05-18T22:12:06.271Z,21.89
2019-05-18T22:14:32.793Z,21.90
2019-05-18T22:16:59.228Z,21.90
2019-05-18T22:19:25.674Z,21.87
2019-05-18T22:21:52.023Z,21.90
2019-05-18T22:24:18.531Z,21.85
2019-05-18T22:26:45.050Z,21.87
2019-05-18T22:29:11.408Z,21.87
2019-05-18T22:31:37.776Z,21.84
2019-05-18T22:36:30.507Z,21.83
2019-05-18T22:38:56.845Z,21.81
2019-05-18T22:41:23.236Z,21.83
2019-05-18T22:43:49.599Z,21.80
2019-05-18T22:46:16.145Z,21.79
2019-05-18T22:48:42.487Z,21.78
2019-05-18T22:51:08.987Z,21.77
2019-05-18T22:53:35.412Z,21.77
2019-05-18T22:56:01.816Z,21.76
2019-05-18T22:58:28.310Z,21.76
2019-05-18T23:00:54.631Z,21.76
2019-05-18T23:03:21.079Z,21.75
2019-05-18T23:05:47.416Z,21.73
2019-05-18T23:10:40.169Z,21.75
2019-05-18T23:13:06.597Z,21.72
2019-05-18T23:15:32.932Z,21.72
2019-05-18T23:17:59.340Z,21.73
2019-05-18T23:20:25.866Z,21.66
2019-05-18T23:22:52.196Z,21.69
2019-05-18T23:25:18.729Z,21.66
2019-05-18T23:27:45.073Z,21.66
2019-05-18T23:30:11.505Z,21.72
2019-05-18T23:32:37.834Z,21.69
2019-05-18T23:35:04.268Z,21.65
2019-05-18T23:37:30.596Z,21.65
2019-05-18T23:39:57.125Z,21.67
2019-05-18T23:44:49.974Z,21.68
2019-05-18T23:47:16.298Z,21.63
2019-05-18T23:49:42.675Z,21.66
2019-05-18T23:52:09.036Z,21.66
2019-05-18T23:54:35.497Z,21.65
2019-05-18T23:57:01.946Z,21.62
2019-05-18T23:59:28.268Z,21.64
